Logo Frankfurt-Egelsbach Airport
Hessische Flugplatz GmbH Egelsbach
Telefon : +49 (0)6103-9418-0
E-Mail : fly@egelsbach-airport.com
   

 

 

 

 

 

 

Aktuelle Daten

Öffnungszeiten: 0800 LT - SS+30 (max 2100 LT)

PPR: 0700 LT - 0800 LT, SS+30 - 2100 LT Tel +49 6103 9418-0

Beschränkung für NVFR-Anflüge mit HPA aufgehoben.

Behördlich vorgeschriebenes Briefing für NVFR-Anflüge mit HPA

» Behördlich vorgeschriebenes Briefing für NVFR-Anflüge mit HPA

Videos Streckenführung

 

Webcam

Webcam

Wetterdaten

Beobachtung von : 16-APR-2014 - 13:31 UTC
Sonnenaufgang : 04:30 UTC
Sonnenuntergang : 18:20 UTC
Sicht : ausgefallen
Wolkenuntergrenze : nicht feststellbar
Wind : 040 / 7 kt
Wind extrem (10 min) : 350-150 / 3-11 kt
Temperatur : 13.5° Celsius
Taupunkt : -0.3° Celsius
QNH : 1029.2 hPa
Dichtehöhe : -130 ft

Daten werden automatisch generiert. Verfügbarkeit und Richtigkeit ohne Gewähr.
Mit freundlicher Unterstützung des Deutschen Wetterdienstes

Metar

523
SADL31 EDFE 161320
METAR EDFE 161320Z 08007KT 050V110 CAVOK 13/M02 Q1029=


Notam

E0649/14 - CRANE ERECTED 200M NORTH OF ASPH RWY 09/27, BEHIND THE POLICE HANGAR. CRANE WORKING RADIUS 37M. ELEV 474FT/99FT AGL. DAY AND NIGHT MARKED. 31 MAR 19:00 2014 UNTIL 30 JUN 20:00 2014. CREATED: 21 MAR 13:16 2014.